Time;durP1;ratioP1;P1;durP2;ratioP2;P2;SDS_P1;SDS_P2;PMS_P1;PMS_P2;Temp;Humidity;BMP_temperature;BMP_pressure;BME280_temperature;BME280_humidity;BME280_pressure;Samples;Min_cycle;Max_cycle;Signal;HPM_P1;HPM_P2
2022/10/25 00:01:19;;;;;;;;;;;13.10;99.90;;;;;;12550950;28;21032;-38
2022/10/25 00:07:21;;;;;;;;;;;13.20;99.90;;;;;;12540525;28;19925;-38
2022/10/25 00:13:23;;;;;;;;;;;13.20;99.90;;;;;;12551755;28;19929;-38
2022/10/25 00:19:25;;;;;;;;;;;13.30;99.90;;;;;;12546497;28;19931;-38
2022/10/25 00:25:27;;;;;;;;;;;13.20;99.90;;;;;;12539507;28;20292;-38
2022/10/25 00:31:28;;;;;;;;;;;13.10;99.90;;;;;;12557468;28;21030;-38
2022/10/25 00:37:30;;;;;;;;;;;13.10;99.90;;;;;;12552196;28;19985;-38
2022/10/25 00:43:43;;;;;;;;;;;13.10;99.90;;;;;;12551279;28;19936;-38
2022/10/25 00:49:46;;;;;;;;;;;13.10;99.90;;;;;;12537442;28;19925;-38
2022/10/25 00:55:52;;;;;;;;;;;13.20;99.90;;;;;;12543213;28;19948;-38
2022/10/25 01:01:54;;;;;;;;;;;13.20;99.90;;;;;;12550377;28;20345;-38
2022/10/25 01:07:56;;;;;;;;;;;13.10;99.90;;;;;;12539038;28;19931;-38
2022/10/25 01:13:58;;;;;;;;;;;13.20;99.90;;;;;;12540107;28;19924;-38
2022/10/25 01:19:59;;;;;;;;;;;13.20;99.90;;;;;;12542584;28;19932;-38
2022/10/25 01:26:04;;;;;;;;;;;13.20;99.90;;;;;;12550681;28;19979;-39
2022/10/25 01:32:19;;;;;;;;;;;13.10;99.90;;;;;;12546155;28;19928;-39
2022/10/25 01:38:24;;;;;;;;;;;13.20;99.90;;;;;;12549727;28;19936;-38
2022/10/25 01:44:25;;;;;;;;;;;13.20;99.90;;;;;;12539563;28;19931;-38
2022/10/25 01:50:29;;;;;;;;;;;13.30;99.90;;;;;;12546212;28;20031;-39
2022/10/25 01:56:33;;;;;;;;;;;13.30;99.90;;;;;;12536167;28;19932;-39
2022/10/25 02:02:34;;;;;;;;;;;13.30;99.90;;;;;;12550353;28;19925;-39
2022/10/25 02:08:40;;;;;;;;;;;13.40;99.90;;;;;;12544632;28;19925;-38
2022/10/25 02:14:46;;;;;;;;;;;13.30;99.90;;;;;;12542482;28;19928;-38
2022/10/25 02:20:48;;;;;;;;;;;13.40;99.90;;;;;;12545286;28;20392;-39
2022/10/25 02:26:51;;;;;;;;;;;13.40;99.90;;;;;;12542783;28;19932;-38
2022/10/25 02:32:53;;;;;;;;;;;13.40;99.90;;;;;;12542608;28;20288;-38
2022/10/25 02:38:56;;;;;;;;;;;13.40;99.90;;;;;;12546763;28;19931;-39
2022/10/25 02:44:58;;;;;;;;;;;13.40;99.90;;;;;;12542943;28;19929;-38
2022/10/25 02:50:59;;;;;;;;;;;13.40;99.90;;;;;;12526758;28;20327;-39
2022/10/25 02:57:01;;;;;;;;;;;13.50;99.90;;;;;;12514463;28;19931;-38
2022/10/25 03:03:03;;;;;;;;;;;13.50;99.90;;;;;;12521582;28;19928;-38
2022/10/25 03:09:04;;;;;;;;;;;13.50;99.90;;;;;;12504242;28;19933;-38
2022/10/25 03:15:06;;;;;;;;;;;13.50;99.90;;;;;;12509419;28;19925;-38
2022/10/25 03:21:09;;;;;;;;;;;13.50;99.90;;;;;;12500288;28;19956;-38
2022/10/25 03:27:10;;;;;;;;;;;13.50;99.90;;;;;;12508912;28;20225;-38
2022/10/25 03:33:12;;;;;;;;;;;13.50;99.90;;;;;;12490551;28;20435;-38
2022/10/25 03:39:14;;;;;;;;;;;13.50;99.90;;;;;;12502219;28;19933;-38
2022/10/25 03:45:16;;;;;;;;;;;13.50;99.90;;;;;;12488866;28;19932;-38
2022/10/25 03:51:17;;;;;;;;;;;13.60;99.90;;;;;;12504155;28;19976;-38
2022/10/25 03:57:19;;;;;;;;;;;13.60;99.90;;;;;;12523590;28;19935;-38
2022/10/25 04:03:21;;;;;;;;;;;13.60;99.90;;;;;;12558455;28;20403;-39
2022/10/25 04:09:22;;;;;;;;;;;13.60;99.90;;;;;;12556642;28;19931;-38
2022/10/25 04:15:24;;;;;;;;;;;13.60;99.90;;;;;;12551684;28;20388;-38
2022/10/25 04:21:26;;;;;;;;;;;13.60;99.90;;;;;;12554029;28;19925;-39
2022/10/25 04:27:28;;;;;;;;;;;13.60;99.90;;;;;;12558419;28;19932;-39
2022/10/25 04:33:30;;;;;;;;;;;13.60;99.90;;;;;;12546590;28;19932;-38
2022/10/25 04:39:32;;;;;;;;;;;13.60;99.90;;;;;;12552086;28;20372;-39
2022/10/25 04:45:34;;;;;;;;;;;13.50;99.90;;;;;;12548668;28;19948;-39
2022/10/25 04:51:35;;;;;;;;;;;13.50;99.90;;;;;;12559185;28;20273;-38
2022/10/25 04:57:37;;;;;;;;;;;13.50;99.90;;;;;;12519117;28;19986;-39
2022/10/25 05:03:39;;;;;;;;;;;13.50;99.90;;;;;;12520514;28;20007;-40
2022/10/25 05:09:41;;;;;;;;;;;13.50;99.90;;;;;;12514599;28;19964;-39
2022/10/25 05:15:54;;;;;;;;;;;13.50;99.90;;;;;;12503557;28;19924;-40
2022/10/25 05:21:56;;;;;;;;;;;13.50;99.90;;;;;;12524158;28;19928;-39
2022/10/25 05:27:58;;;;;;;;;;;13.50;99.90;;;;;;12511134;28;19944;-38
2022/10/25 05:34:00;;;;;;;;;;;13.50;99.90;;;;;;12526912;28;19924;-38
2022/10/25 05:40:02;;;;;;;;;;;13.50;99.90;;;;;;12507756;28;19928;-39
2022/10/25 05:46:13;;;;;;;;;;;13.50;99.90;;;;;;12517084;28;20485;-39
2022/10/25 05:52:16;;;;;;;;;;;13.50;99.90;;;;;;12503410;28;19929;-39
2022/10/25 05:58:17;;;;;;;;;;;13.50;99.90;;;;;;12535562;28;20446;-39
2022/10/25 06:04:19;;;;;;;;;;;13.60;99.90;;;;;;12553303;28;19924;-38
2022/10/25 06:10:21;;;;;;;;;;;13.60;99.90;;;;;;12543055;28;20369;-39
2022/10/25 06:16:23;;;;;;;;;;;13.50;99.90;;;;;;12543838;28;20346;-38
2022/10/25 06:22:25;;;;;;;;;;;13.50;99.90;;;;;;12538804;28;19933;-38
2022/10/25 06:28:30;;;;;;;;;;;13.50;99.90;;;;;;12539302;28;19925;-39
2022/10/25 06:34:31;;;;;;;;;;;13.50;99.90;;;;;;12537602;28;19932;-38
2022/10/25 06:40:34;;;;;;;;;;;13.60;99.90;;;;;;12546436;28;19929;-38
2022/10/25 06:46:37;;;;;;;;;;;13.50;99.90;;;;;;12552550;28;19925;-39
2022/10/25 06:52:59;;;;;;;;;;;13.60;99.90;;;;;;12550250;28;19924;-39
2022/10/25 06:59:02;;;;;;;;;;;13.50;99.90;;;;;;12512706;28;20470;-39
2022/10/25 07:05:04;;;;;;;;;;;13.50;99.90;;;;;;12521415;28;20384;-38
2022/10/25 07:11:06;;;;;;;;;;;13.50;99.90;;;;;;12509268;28;19924;-38
2022/10/25 07:17:07;;;;;;;;;;;13.50;99.90;;;;;;12516857;28;19924;-38
2022/10/25 07:23:09;;;;;;;;;;;13.60;99.90;;;;;;12503964;28;19929;-38
2022/10/25 07:29:11;;;;;;;;;;;13.60;99.90;;;;;;12523770;28;19928;-38
2022/10/25 07:35:13;;;;;;;;;;;13.70;99.90;;;;;;12486779;28;19971;-38
2022/10/25 07:41:15;;;;;;;;;;;13.70;99.90;;;;;;12516576;28;20326;-38
2022/10/25 07:47:16;;;;;;;;;;;13.80;99.90;;;;;;12508255;28;20028;-39
2022/10/25 07:53:18;;;;;;;;;;;13.80;99.90;;;;;;12504860;28;19975;-39
2022/10/25 07:59:20;;;;;;;;;;;13.80;99.90;;;;;;12556446;28;19924;-38
2022/10/25 08:05:22;;;;;;;;;;;13.90;99.90;;;;;;12553091;28;20334;-39
2022/10/25 08:11:24;;;;;;;;;;;13.80;99.90;;;;;;12550969;28;20003;-38
2022/10/25 08:17:26;;;;;;;;;;;13.90;99.90;;;;;;12553463;28;19935;-38
2022/10/25 08:23:28;;;;;;;;;;;13.90;99.90;;;;;;12549818;28;19929;-38
2022/10/25 08:29:30;;;;;;;;;;;13.90;99.90;;;;;;12533198;28;19925;-38
2022/10/25 08:35:32;;;;;;;;;;;14.00;99.90;;;;;;12547820;28;19925;-38
2022/10/25 08:41:54;;;;;;;;;;;14.00;99.90;;;;;;12545023;28;20304;-39
2022/10/25 08:47:59;;;;;;;;;;;14.20;99.90;;;;;;12552276;28;20211;-38
2022/10/25 08:54:03;;;;;;;;;;;14.10;99.90;;;;;;12548321;28;19932;-39
2022/10/25 09:00:11;;;;;;;;;;;14.10;99.90;;;;;;12514451;28;19963;-38
2022/10/25 09:06:34;;;;;;;;;;;14.20;99.90;;;;;;12475609;28;19959;-38
2022/10/25 09:12:54;;;;;;;;;;;14.10;99.90;;;;;;12503075;28;19979;-38
2022/10/25 09:18:56;;;;;;;;;;;14.20;99.90;;;;;;12522143;28;20239;-39
2022/10/25 09:25:17;;;;;;;;;;;14.10;99.90;;;;;;12499628;28;19967;-38
2022/10/25 09:31:21;;;;;;;;;;;14.30;99.90;;;;;;12491796;28;20381;-38
2022/10/25 09:37:25;;;;;;;;;;;14.50;99.90;;;;;;12467099;28;19928;-38
2022/10/25 09:43:50;;;;;;;;;;;14.50;99.90;;;;;;12457155;28;19936;-38
2022/10/25 09:50:01;;;;;;;;;;;14.60;99.90;;;;;;12460168;28;19925;-38
2022/10/25 09:56:03;;;;;;;;;;;14.50;99.90;;;;;;12465091;28;19925;-38
2022/10/25 10:02:09;;;;;;;;;;;14.50;99.90;;;;;;12491765;28;20075;-39
2022/10/25 10:08:12;;;;;;;;;;;14.40;99.90;;;;;;12501917;28;19925;-39
2022/10/25 10:14:20;;;;;;;;;;;14.50;99.90;;;;;;12489301;28;19929;-39
2022/10/25 10:20:22;;;;;;;;;;;14.40;99.90;;;;;;12498993;28;19936;-38
2022/10/25 10:26:29;;;;;;;;;;;14.40;99.90;;;;;;12501388;28;20292;-39
2022/10/25 10:32:36;;;;;;;;;;;14.40;99.90;;;;;;12518297;28;20368;-38
2022/10/25 10:38:38;;;;;;;;;;;14.40;99.90;;;;;;12549224;28;19935;-38
2022/10/25 10:44:40;;;;;;;;;;;14.40;99.90;;;;;;12530389;28;19932;-39
2022/10/25 10:50:47;;;;;;;;;;;14.50;99.90;;;;;;12538550;28;19936;-38
2022/10/25 10:56:56;;;;;;;;;;;14.50;99.90;;;;;;12522092;28;20289;-38
2022/10/25 11:02:58;;;;;;;;;;;14.60;99.90;;;;;;12517178;28;20415;-38
2022/10/25 11:09:03;;;;;;;;;;;14.70;99.90;;;;;;12498673;28;20278;-38
2022/10/25 11:15:11;;;;;;;;;;;14.80;99.90;;;;;;12514043;28;20347;-38
2022/10/25 11:21:22;;;;;;;;;;;14.70;99.90;;;;;;12491163;28;19929;-39
2022/10/25 11:27:24;;;;;;;;;;;15.40;99.90;;;;;;12482741;28;20304;-38
2022/10/25 11:33:28;;;;;;;;;;;15.50;99.90;;;;;;12505086;28;20532;-39
2022/10/25 11:39:35;;;;;;;;;;;15.20;99.90;;;;;;12513024;28;19933;-39
2022/10/25 11:45:41;;;;;;;;;;;15.10;99.90;;;;;;12511242;28;20163;-38
2022/10/25 11:52:08;;;;;;;;;;;15.30;99.90;;;;;;12525044;28;20910;-39
2022/10/25 11:58:19;;;;;;;;;;;15.40;99.90;;;;;;12537629;28;19929;-38
2022/10/25 12:04:52;;;;;;;;;;;15.60;99.90;;;;;;12540954;28;20066;-38
2022/10/25 12:10:56;;;;;;;;;;;15.40;99.90;;;;;;12518569;28;19931;-39
2022/10/25 12:16:59;;;;;;;;;;;15.30;99.90;;;;;;12550596;28;19936;-39
2022/10/25 12:23:02;;;;;;;;;;;15.30;99.90;;;;;;12527486;28;19929;-38
2022/10/25 12:29:06;;;;;;;;;;;15.60;99.90;;;;;;12546257;28;20381;-38
2022/10/25 12:35:20;;;;;;;;;;;16.00;99.90;;;;;;12540251;28;19929;-38
2022/10/25 12:41:24;;;;;;;;;;;16.00;99.90;;;;;;12546861;28;19933;-39
2022/10/25 12:47:32;;;;;;;;;;;15.70;99.90;;;;;;12548680;28;20311;-38
2022/10/25 12:53:52;;;;;;;;;;;15.60;99.90;;;;;;12555751;28;19924;-39
2022/10/25 13:00:08;;;;;;;;;;;15.50;99.90;;;;;;12527693;28;20308;-38
2022/10/25 13:06:23;;;;;;;;;;;15.60;99.90;;;;;;12518310;28;19929;-39
2022/10/25 13:12:29;;;;;;;;;;;15.80;99.90;;;;;;12527338;28;20134;-39
2022/10/25 13:18:33;;;;;;;;;;;15.90;99.90;;;;;;12534200;28;19954;-39
2022/10/25 13:24:39;;;;;;;;;;;16.00;99.90;;;;;;12548957;28;20023;-39
2022/10/25 13:30:42;;;;;;;;;;;15.70;99.90;;;;;;12541266;28;20344;-39
2022/10/25 13:36:45;;;;;;;;;;;15.70;99.90;;;;;;12554872;28;19924;-39
2022/10/25 13:42:49;;;;;;;;;;;15.80;99.90;;;;;;12540294;28;20323;-39
2022/10/25 13:48:53;;;;;;;;;;;15.80;99.90;;;;;;12547430;28;19933;-39
2022/10/25 13:54:55;;;;;;;;;;;15.70;99.90;;;;;;12534185;28;19931;-39
2022/10/25 14:01:17;;;;;;;;;;;15.70;99.90;;;;;;12554257;28;20296;-39
2022/10/25 14:07:38;;;;;;;;;;;15.60;99.90;;;;;;12528492;28;20459;-38
2022/10/25 14:13:52;;;;;;;;;;;15.50;99.90;;;;;;12543483;28;19933;-39
2022/10/25 14:20:16;;;;;;;;;;;15.40;99.90;;;;;;12542978;28;20289;-39
2022/10/25 14:26:20;;;;;;;;;;;15.20;99.90;;;;;;12554071;28;20380;-38
2022/10/25 14:32:22;;;;;;;;;;;15.20;99.90;;;;;;12553773;28;19978;-38
2022/10/25 14:38:25;;;;;;;;;;;15.30;99.90;;;;;;12538824;28;20012;-38
2022/10/25 14:44:28;;;;;;;;;;;15.30;99.90;;;;;;12545418;28;19941;-39
2022/10/25 14:50:30;;;;;;;;;;;15.30;99.90;;;;;;12529498;28;20297;-39
2022/10/25 14:56:52;;;;;;;;;;;15.10;99.90;;;;;;12542870;28;19932;-39
2022/10/25 15:02:56;;;;;;;;;;;15.00;99.90;;;;;;12523378;28;19924;-39
2022/10/25 15:09:01;;;;;;;;;;;14.90;99.90;;;;;;12551994;28;19924;-39
2022/10/25 15:15:39;;;;;;;;;;;14.80;99.90;;;;;;12541633;28;20799;-39
2022/10/25 15:21:45;;;;;;;;;;;14.60;99.90;;;;;;12542109;28;19925;-38
2022/10/25 15:27:47;;;;;;;;;;;14.50;99.90;;;;;;12553512;28;19928;-39
2022/10/25 15:33:53;;;;;;;;;;;14.40;99.90;;;;;;12521253;28;19931;-39
2022/10/25 15:39:56;;;;;;;;;;;14.20;99.90;;;;;;12544973;28;19983;-39
2022/10/25 15:45:58;;;;;;;;;;;14.10;99.90;;;;;;12561061;28;19932;-38
2022/10/25 15:52:00;;;;;;;;;;;14.10;99.90;;;;;;12551413;28;19925;-39
2022/10/25 15:58:02;;;;;;;;;;;14.00;99.90;;;;;;12553924;28;19962;-39
2022/10/25 16:04:14;;;;;;;;;;;13.80;99.90;;;;;;12544051;28;19924;-38
2022/10/25 16:10:16;;;;;;;;;;;13.70;99.90;;;;;;12550939;28;20348;-38
2022/10/25 16:16:23;;;;;;;;;;;13.60;99.90;;;;;;12544272;28;20292;-38
2022/10/25 16:22:42;;;;;;;;;;;13.50;99.90;;;;;;12548988;28;19971;-38
2022/10/25 16:28:43;;;;;;;;;;;13.30;99.90;;;;;;12555536;28;20383;-38
2022/10/25 16:34:45;;;;;;;;;;;13.20;99.90;;;;;;12537907;28;19976;-39
2022/10/25 16:40:50;;;;;;;;;;;13.10;99.90;;;;;;12547097;28;19924;-38
2022/10/25 16:46:52;;;;;;;;;;;13.00;99.90;;;;;;12555610;28;19932;-38
2022/10/25 16:52:55;;;;;;;;;;;13.00;99.90;;;;;;12557387;28;19940;-38
2022/10/25 16:58:56;;;;;;;;;;;13.10;99.90;;;;;;12528509;28;19936;-38
2022/10/25 17:04:59;;;;;;;;;;;13.20;99.90;;;;;;12537053;28;19924;-38
2022/10/25 17:11:03;;;;;;;;;;;13.10;99.90;;;;;;12541005;28;19925;-38
2022/10/25 17:17:05;;;;;;;;;;;13.10;99.90;;;;;;12543706;28;19936;-38
2022/10/25 17:23:07;;;;;;;;;;;13.10;99.90;;;;;;12537851;28;19940;-38
2022/10/25 17:29:08;;;;;;;;;;;13.10;99.90;;;;;;12554923;28;19936;-38
2022/10/25 17:35:10;;;;;;;;;;;13.10;99.90;;;;;;12536244;28;20514;-39
2022/10/25 17:41:13;;;;;;;;;;;12.90;99.90;;;;;;12540073;28;19928;-38
2022/10/25 17:47:15;;;;;;;;;;;13.00;99.90;;;;;;12536944;28;19925;-39
2022/10/25 17:53:16;;;;;;;;;;;12.90;99.90;;;;;;12538617;28;19954;-39
2022/10/25 17:59:18;;;;;;;;;;;12.80;99.90;;;;;;12545020;28;20027;-39
2022/10/25 18:05:20;;;;;;;;;;;12.70;99.90;;;;;;12553479;28;19924;-38
2022/10/25 18:11:23;;;;;;;;;;;12.60;99.90;;;;;;12530896;28;20415;-38
2022/10/25 18:17:25;;;;;;;;;;;12.50;99.90;;;;;;12543483;28;19925;-39
2022/10/25 18:23:26;;;;;;;;;;;12.50;99.90;;;;;;12540897;28;19940;-38
2022/10/25 18:29:28;;;;;;;;;;;12.50;99.90;;;;;;12537952;28;19925;-38
2022/10/25 18:35:29;;;;;;;;;;;12.50;99.90;;;;;;12554033;28;19928;-39
2022/10/25 18:41:32;;;;;;;;;;;12.40;99.90;;;;;;12541340;28;19929;-39
2022/10/25 18:47:34;;;;;;;;;;;12.30;99.90;;;;;;12543279;28;19932;-39
2022/10/25 18:53:38;;;;;;;;;;;12.50;99.90;;;;;;12546413;28;20008;-39
2022/10/25 18:59:40;;;;;;;;;;;12.40;99.90;;;;;;12546535;28;19931;-38
2022/10/25 19:05:42;;;;;;;;;;;12.30;99.90;;;;;;12543919;28;19925;-38
2022/10/25 19:11:43;;;;;;;;;;;12.30;99.90;;;;;;12543054;28;19979;-38
2022/10/25 19:17:48;;;;;;;;;;;12.40;99.90;;;;;;12547623;28;19925;-39
2022/10/25 19:23:52;;;;;;;;;;;12.40;99.90;;;;;;12554615;28;19934;-38
2022/10/25 19:29:56;;;;;;;;;;;12.50;99.90;;;;;;12546643;28;19925;-38
2022/10/25 19:36:05;;;;;;;;;;;12.50;99.90;;;;;;12558879;28;19925;-39
2022/10/25 19:42:07;;;;;;;;;;;12.40;99.90;;;;;;12562715;28;19928;-38
2022/10/25 19:48:09;;;;;;;;;;;12.40;99.90;;;;;;12560092;28;20021;-38
2022/10/25 19:54:10;;;;;;;;;;;12.50;99.90;;;;;;12561616;28;19932;-38
2022/10/25 20:00:12;;;;;;;;;;;12.40;99.90;;;;;;12555542;28;19932;-38
2022/10/25 20:06:16;;;;;;;;;;;12.30;99.90;;;;;;12541355;28;19925;-38
2022/10/25 20:12:24;;;;;;;;;;;12.30;99.90;;;;;;12560665;28;19924;-38
2022/10/25 20:18:28;;;;;;;;;;;12.30;99.90;;;;;;12551990;28;19929;-38
2022/10/25 20:24:30;;;;;;;;;;;12.30;99.90;;;;;;12540208;28;19943;-38
2022/10/25 20:30:34;;;;;;;;;;;12.20;99.90;;;;;;12553004;28;19932;-38
2022/10/25 20:36:36;;;;;;;;;;;12.30;99.90;;;;;;12552066;28;19925;-39
2022/10/25 20:42:38;;;;;;;;;;;12.30;99.90;;;;;;12552134;28;19925;-39
2022/10/25 20:48:40;;;;;;;;;;;12.20;99.90;;;;;;12551823;28;19936;-38
2022/10/25 20:54:42;;;;;;;;;;;12.20;99.90;;;;;;12549285;28;20012;-38
2022/10/25 21:00:44;;;;;;;;;;;12.30;99.90;;;;;;12546840;28;19925;-38
2022/10/25 21:06:47;;;;;;;;;;;12.30;99.90;;;;;;12544372;28;19924;-38
2022/10/25 21:12:49;;;;;;;;;;;12.20;99.90;;;;;;12527295;28;20384;-38
2022/10/25 21:18:51;;;;;;;;;;;12.20;99.90;;;;;;12542814;28;19924;-38
2022/10/25 21:24:53;;;;;;;;;;;12.20;99.90;;;;;;12545939;28;19970;-38
2022/10/25 21:30:58;;;;;;;;;;;12.10;99.90;;;;;;12541690;28;19925;-38
2022/10/25 21:37:00;;;;;;;;;;;12.20;99.90;;;;;;12550415;28;20027;-38
2022/10/25 21:43:02;;;;;;;;;;;12.20;99.90;;;;;;12553897;28;19932;-38
2022/10/25 21:49:04;;;;;;;;;;;12.20;99.90;;;;;;12541470;28;19925;-38
2022/10/25 21:55:06;;;;;;;;;;;12.20;99.90;;;;;;12544631;28;19936;-38
2022/10/25 22:01:09;;;;;;;;;;;12.20;99.90;;;;;;12540370;28;20530;-38
2022/10/25 22:07:11;;;;;;;;;;;12.20;99.90;;;;;;12552272;28;20392;-38
2022/10/25 22:13:13;;;;;;;;;;;12.20;99.90;;;;;;12545937;28;19925;-38
2022/10/25 22:19:17;;;;;;;;;;;12.20;99.90;;;;;;12546056;28;19929;-38
2022/10/25 22:25:18;;;;;;;;;;;12.20;99.90;;;;;;12548403;28;19924;-38
2022/10/25 22:31:21;;;;;;;;;;;12.30;99.90;;;;;;12535892;28;19924;-39
2022/10/25 22:37:22;;;;;;;;;;;12.20;99.90;;;;;;12546416;28;19929;-38
2022/10/25 22:43:24;;;;;;;;;;;12.30;99.90;;;;;;12542257;28;19932;-38
2022/10/25 22:49:26;;;;;;;;;;;12.50;99.90;;;;;;12542372;28;19929;-38
2022/10/25 22:55:27;;;;;;;;;;;12.30;99.90;;;;;;12538775;28;19933;-38
2022/10/25 23:01:30;;;;;;;;;;;12.10;99.90;;;;;;12549364;28;19940;-38
2022/10/25 23:07:32;;;;;;;;;;;11.80;99.90;;;;;;12545312;28;19933;-38
2022/10/25 23:13:34;;;;;;;;;;;11.70;99.90;;;;;;12535623;28;20289;-38
2022/10/25 23:19:36;;;;;;;;;;;11.80;99.90;;;;;;12546245;28;20103;-39
2022/10/25 23:25:38;;;;;;;;;;;11.80;99.90;;;;;;12553794;28;19939;-38
2022/10/25 23:31:39;;;;;;;;;;;11.80;99.90;;;;;;12548971;28;19924;-39
2022/10/25 23:37:41;;;;;;;;;;;11.80;99.90;;;;;;12527471;28;20295;-38
2022/10/25 23:43:43;;;;;;;;;;;11.90;99.90;;;;;;12543522;28;19925;-38
2022/10/25 23:49:45;;;;;;;;;;;12.20;99.90;;;;;;12533414;28;20411;-38
2022/10/25 23:55:46;;;;;;;;;;;12.10;99.90;;;;;;12533788;28;19925;-38
